createdAt,value
2019-03-21T00:01:31.724Z,102297.61
2019-03-21T00:04:38.696Z,102302.41
2019-03-21T00:07:45.966Z,102302.53
2019-03-21T00:11:38.862Z,102241.98
2019-03-21T00:15:08.729Z,102304.33
2019-03-21T00:18:15.994Z,102303.63
2019-03-21T00:21:23.484Z,102305.97
2019-03-21T00:24:30.425Z,102309.81
2019-03-21T00:27:37.489Z,102318.09
2019-03-21T00:30:44.422Z,102313.95
2019-03-21T00:33:51.460Z,102310.82
2019-03-21T00:36:58.469Z,102236.88
2019-03-21T00:40:07.335Z,102308.95
2019-03-21T00:43:14.270Z,102303.55
2019-03-21T00:46:21.085Z,102285.78
2019-03-21T00:49:27.955Z,102293.84
2019-03-21T00:52:35.178Z,102293.84
2019-03-21T00:55:43.029Z,102301.00
2019-03-21T00:58:50.203Z,102300.73
2019-03-21T01:01:57.181Z,102297.17
2019-03-21T01:05:04.392Z,102297.31
2019-03-21T01:08:11.165Z,102282.06
2019-03-21T01:11:19.008Z,102301.94
2019-03-21T01:14:30.051Z,102294.17
2019-03-21T01:17:34.925Z,102287.78
2019-03-21T01:20:41.793Z,102276.36
2019-03-21T01:23:48.681Z,102272.14
2019-03-21T01:26:55.548Z,102256.45
2019-03-21T01:30:02.528Z,102259.06
2019-03-21T01:33:09.669Z,102268.02
2019-03-21T01:36:17.024Z,102267.23
2019-03-21T01:39:24.014Z,102259.48
2019-03-21T01:42:31.004Z,102258.19
2019-03-21T01:45:37.866Z,102234.88
2019-03-21T01:48:44.983Z,102239.70
2019-03-21T01:51:51.971Z,102242.00
2019-03-21T01:54:59.361Z,102242.00
2019-03-21T01:58:06.924Z,102244.20
2019-03-21T02:01:13.845Z,102245.91
2019-03-21T02:04:20.750Z,102249.70
2019-03-21T02:07:27.815Z,102234.52
2019-03-21T02:10:34.803Z,102235.02
2019-03-21T02:13:42.267Z,102230.20
2019-03-21T02:16:49.123Z,102227.94
2019-03-21T02:19:56.560Z,102225.80
2019-03-21T02:23:03.521Z,102228.27
2019-03-21T02:26:10.440Z,102214.92
2019-03-21T02:29:17.366Z,102210.88
2019-03-21T02:32:24.582Z,102224.44
2019-03-21T02:35:31.442Z,102227.14
2019-03-21T02:38:38.285Z,102215.55
2019-03-21T02:41:45.143Z,102215.55
2019-03-21T02:45:07.221Z,102223.80
2019-03-21T02:48:00.826Z,102222.61
2019-03-21T02:51:08.083Z,102203.75
2019-03-21T02:54:15.029Z,102196.20
2019-03-21T02:57:22.074Z,102204.89
2019-03-21T03:00:29.510Z,102198.92
2019-03-21T03:03:36.509Z,102188.38
2019-03-21T03:06:43.287Z,102187.22
2019-03-21T03:09:50.248Z,102183.34
2019-03-21T03:12:57.125Z,102183.40
2019-03-21T03:16:04.526Z,102169.03
2019-03-21T03:19:11.394Z,102170.77
2019-03-21T03:22:18.686Z,102170.69
2019-03-21T03:25:25.550Z,102163.78
2019-03-21T03:28:32.799Z,102160.71
2019-03-21T03:31:39.672Z,102154.39
2019-03-21T03:34:46.735Z,102151.09
2019-03-21T03:37:53.561Z,102149.52
2019-03-21T03:41:01.271Z,102144.05
2019-03-21T03:44:08.466Z,102141.14
2019-03-21T03:47:15.617Z,102138.49
2019-03-21T03:50:22.483Z,102134.42
2019-03-21T03:53:29.359Z,102122.55
2019-03-21T03:56:36.190Z,102121.63
2019-03-21T03:59:43.295Z,102112.56
2019-03-21T04:02:51.457Z,102112.07
2019-03-21T04:05:58.519Z,102111.13
2019-03-21T04:09:07.375Z,102100.44
2019-03-21T04:12:14.530Z,102089.39
2019-03-21T04:15:22.462Z,102093.08
2019-03-21T04:18:30.006Z,102077.84
2019-03-21T04:21:36.942Z,102077.02
2019-03-21T04:24:44.371Z,102090.59
2019-03-21T04:27:51.237Z,102098.23
2019-03-21T04:30:58.077Z,102106.12
2019-03-21T04:34:06.501Z,102098.97
2019-03-21T04:37:13.644Z,102094.59
2019-03-21T04:40:20.482Z,102088.28
2019-03-21T04:43:27.376Z,102090.08
2019-03-21T04:46:34.179Z,102091.34
2019-03-21T04:49:41.223Z,102076.73
2019-03-21T04:52:48.227Z,102073.09
2019-03-21T04:55:55.341Z,102067.73
2019-03-21T04:59:02.229Z,102062.00
2019-03-21T05:02:10.281Z,102064.58
2019-03-21T05:05:17.249Z,102061.75
2019-03-21T05:08:24.194Z,102062.61
2019-03-21T05:11:31.050Z,102056.75
2019-03-21T05:14:38.192Z,102060.03
2019-03-21T05:17:45.806Z,102056.52
2019-03-21T05:20:53.224Z,102055.32
2019-03-21T05:24:00.108Z,102047.30
2019-03-21T05:27:07.318Z,102058.03
2019-03-21T05:30:17.503Z,102045.70
2019-03-21T05:33:24.317Z,102043.50
2019-03-21T05:36:31.327Z,102041.81
2019-03-21T05:39:38.565Z,102045.30
2019-03-21T05:42:56.200Z,102048.04
2019-03-21T05:46:03.341Z,102042.88
2019-03-21T05:49:10.264Z,102041.48
2019-03-21T05:52:17.393Z,102043.28
2019-03-21T05:55:26.751Z,102044.05
2019-03-21T05:58:34.357Z,102038.23
2019-03-21T06:01:41.219Z,102026.05
2019-03-21T06:04:48.342Z,102026.55
2019-03-21T06:08:10.825Z,102023.45
2019-03-21T06:11:18.052Z,102025.63
2019-03-21T06:14:25.189Z,102022.92
2019-03-21T06:17:34.164Z,102018.27
2019-03-21T06:21:13.198Z,102018.30
2019-03-21T06:24:50.509Z,102019.73
2019-03-21T06:27:57.516Z,102006.13
2019-03-21T06:31:04.666Z,102014.99
2019-03-21T06:34:11.487Z,102012.47
2019-03-21T06:37:18.501Z,102005.17
2019-03-21T06:40:25.475Z,101988.80
2019-03-21T06:43:32.478Z,102000.72
2019-03-21T06:46:48.761Z,101993.33
2019-03-21T06:49:48.516Z,101992.05
2019-03-21T06:52:55.426Z,101979.91
2019-03-21T06:56:02.221Z,101967.91
2019-03-21T06:59:09.015Z,101968.46
2019-03-21T07:02:16.022Z,101963.44
2019-03-21T07:05:23.067Z,101951.80
2019-03-21T07:08:30.037Z,101946.44
2019-03-21T07:11:36.942Z,101947.52
2019-03-21T07:14:43.918Z,101937.91
2019-03-21T07:17:50.738Z,101929.43
2019-03-21T07:21:00.978Z,101929.84
2019-03-21T07:24:07.042Z,101918.73
2019-03-21T07:27:14.150Z,101901.03
2019-03-21T07:30:21.243Z,101901.03
2019-03-21T07:33:28.204Z,101911.59
2019-03-21T07:36:35.108Z,101910.25
2019-03-21T07:39:42.299Z,101882.52
2019-03-21T07:42:49.387Z,101882.52
2019-03-21T07:45:56.437Z,101897.77
2019-03-21T07:49:04.292Z,101899.16
2019-03-21T07:52:11.396Z,101893.77
2019-03-21T07:55:18.456Z,101883.96
2019-03-21T07:58:25.302Z,101873.29
2019-03-21T08:01:33.174Z,101872.12
2019-03-21T08:04:40.531Z,101864.02
2019-03-21T08:07:47.516Z,101858.27
2019-03-21T08:10:54.616Z,101859.62
2019-03-21T08:14:01.534Z,101854.20
2019-03-21T08:17:08.477Z,101860.31
2019-03-21T08:20:15.925Z,101860.31
2019-03-21T08:23:23.170Z,101864.37
2019-03-21T08:26:31.041Z,101854.86
2019-03-21T08:29:38.006Z,101846.91
2019-03-21T08:32:45.049Z,101846.58
2019-03-21T08:35:52.048Z,101841.30
2019-03-21T08:38:58.938Z,101835.88
2019-03-21T08:42:05.897Z,101818.55
2019-03-21T08:45:13.032Z,101807.35
2019-03-21T08:48:19.982Z,101799.50
2019-03-21T08:51:26.903Z,101801.03
2019-03-21T08:54:35.026Z,101785.89
2019-03-21T08:57:42.093Z,101778.25
2019-03-21T09:00:49.202Z,101768.68
2019-03-21T09:03:56.088Z,101754.17
2019-03-21T09:07:03.083Z,101754.17
2019-03-21T09:10:10.296Z,101762.95
2019-03-21T09:13:17.267Z,101754.41
2019-03-21T09:16:24.218Z,101756.73
2019-03-21T09:19:31.069Z,101755.05
2019-03-21T09:22:37.915Z,101764.72
2019-03-21T09:25:44.973Z,101756.41
2019-03-21T09:28:52.714Z,101754.70
2019-03-21T09:31:59.631Z,101747.49
2019-03-21T09:35:07.412Z,101744.42
2019-03-21T09:38:14.806Z,101741.61
2019-03-21T09:41:21.752Z,101741.45
2019-03-21T09:44:29.353Z,101735.11
2019-03-21T09:47:36.308Z,101751.22
2019-03-21T09:50:43.419Z,101742.19
2019-03-21T09:53:50.288Z,101749.23
2019-03-21T09:56:58.053Z,101747.50
2019-03-21T10:00:05.646Z,101731.48
2019-03-21T10:03:12.688Z,101748.41
2019-03-21T10:06:19.630Z,101734.09
2019-03-21T10:09:26.461Z,101735.91
2019-03-21T10:12:33.404Z,101731.44
2019-03-21T10:15:40.436Z,101723.10
2019-03-21T10:18:47.218Z,101722.73
2019-03-21T10:21:54.225Z,101722.34
2019-03-21T10:25:01.138Z,101723.67
2019-03-21T10:28:08.437Z,101715.08
2019-03-21T10:31:15.311Z,101723.51
2019-03-21T10:34:22.692Z,101714.91
2019-03-21T10:37:30.003Z,101721.72
2019-03-21T10:40:37.024Z,101706.02
2019-03-21T10:43:43.985Z,101714.48
2019-03-21T10:46:50.961Z,101700.39
2019-03-21T10:49:57.997Z,101693.58
2019-03-21T10:53:06.758Z,101690.61
2019-03-21T10:56:14.552Z,101682.70
2019-03-21T10:59:21.504Z,101683.49
2019-03-21T11:02:28.355Z,101693.77
2019-03-21T11:05:35.198Z,101689.03
2019-03-21T11:08:42.003Z,101692.67
2019-03-21T11:11:48.943Z,101686.67
2019-03-21T11:14:55.921Z,101676.47
2019-03-21T11:18:02.885Z,101687.02
2019-03-21T11:21:09.811Z,101695.09
2019-03-21T11:24:16.637Z,101690.27
2019-03-21T11:27:23.539Z,101701.14
2019-03-21T11:30:32.704Z,101692.36
2019-03-21T11:33:39.706Z,101698.72
2019-03-21T11:36:46.665Z,101693.80
2019-03-21T11:39:53.877Z,101694.83
2019-03-21T11:43:01.364Z,101698.19
2019-03-21T11:46:08.223Z,101701.40
2019-03-21T11:49:15.145Z,101710.69
2019-03-21T11:52:22.158Z,101708.47
2019-03-21T11:55:29.384Z,101702.42
2019-03-21T11:58:36.323Z,101704.17
2019-03-21T12:01:43.328Z,101698.67
2019-03-21T12:04:50.241Z,101694.88
2019-03-21T12:07:57.228Z,101702.50
2019-03-21T12:11:04.147Z,101706.59
2019-03-21T12:14:11.170Z,101707.95
2019-03-21T12:17:18.226Z,101716.26
2019-03-21T12:20:35.054Z,101714.17
2019-03-21T12:23:42.048Z,101707.47
2019-03-21T12:26:49.862Z,101706.46
2019-03-21T12:29:57.198Z,101704.90
2019-03-21T12:33:04.552Z,101701.70
2019-03-21T12:36:11.500Z,101694.78
2019-03-21T12:39:18.536Z,101686.41
2019-03-21T12:42:25.696Z,101680.14
2019-03-21T12:45:32.771Z,101704.45
2019-03-21T12:48:39.996Z,101702.06
2019-03-21T12:51:47.020Z,101717.48
2019-03-21T12:54:54.051Z,101708.36
2019-03-21T12:58:01.055Z,101718.61
2019-03-21T13:01:08.001Z,101727.29
2019-03-21T13:04:15.214Z,101722.67
2019-03-21T13:07:22.631Z,101723.80
2019-03-21T13:10:29.809Z,101718.29
2019-03-21T13:13:36.669Z,101714.78
2019-03-21T13:16:43.483Z,101720.08
2019-03-21T13:19:50.494Z,101718.72
2019-03-21T13:22:57.718Z,101716.32
2019-03-21T13:26:04.622Z,101733.04
2019-03-21T13:29:11.440Z,101740.72
2019-03-21T13:32:18.571Z,101739.80
2019-03-21T13:35:33.000Z,101736.80
2019-03-21T13:38:37.864Z,101732.24
2019-03-21T13:41:44.793Z,101730.91
2019-03-21T13:44:52.026Z,101723.17
2019-03-21T13:47:58.946Z,101720.45
2019-03-21T13:51:05.815Z,101710.63
2019-03-21T13:54:12.828Z,101713.57
2019-03-21T13:57:19.791Z,101713.48
2019-03-21T14:00:26.762Z,101716.92
2019-03-21T14:03:33.641Z,101715.55
2019-03-21T14:06:41.503Z,101717.56
2019-03-21T14:09:48.576Z,101713.58
2019-03-21T14:12:55.533Z,101719.45
2019-03-21T14:16:02.403Z,101710.91
2019-03-21T14:19:09.423Z,101723.91
2019-03-21T14:22:16.365Z,101727.84
2019-03-21T14:25:23.259Z,101713.72
2019-03-21T14:28:30.143Z,101735.50
2019-03-21T14:31:37.162Z,101720.02
2019-03-21T14:34:44.305Z,101724.73
2019-03-21T14:37:53.113Z,101722.17
2019-03-21T14:41:00.034Z,101715.34
2019-03-21T14:44:07.193Z,101720.02
2019-03-21T14:47:15.784Z,101724.61
2019-03-21T14:50:22.873Z,101707.60
2019-03-21T14:53:29.728Z,101722.30
2019-03-21T14:56:36.935Z,101724.07
2019-03-21T14:59:43.954Z,101714.41
2019-03-21T15:02:50.999Z,101705.66
2019-03-21T15:05:57.867Z,101722.28
2019-03-21T15:09:06.593Z,101730.26
2019-03-21T15:12:15.362Z,101735.37
2019-03-21T15:15:23.944Z,101734.08
2019-03-21T15:18:30.807Z,101744.34
2019-03-21T15:21:37.697Z,101745.94
2019-03-21T15:24:44.698Z,101746.11
2019-03-21T15:27:51.613Z,101745.73
2019-03-21T15:30:58.506Z,101753.05
2019-03-21T15:34:05.587Z,101764.34
2019-03-21T15:37:12.599Z,101779.64
2019-03-21T15:40:19.833Z,101779.33
2019-03-21T15:43:26.707Z,101776.91
2019-03-21T15:46:33.744Z,101773.84
2019-03-21T15:49:40.967Z,101776.70
2019-03-21T15:52:48.287Z,101772.67
2019-03-21T15:55:55.198Z,101787.88
2019-03-21T15:59:02.079Z,101800.67
2019-03-21T16:02:09.268Z,101796.59
2019-03-21T16:05:16.158Z,101782.59
2019-03-21T16:08:23.087Z,101801.95
2019-03-21T16:11:32.625Z,101794.08
2019-03-21T16:14:40.050Z,101813.45
2019-03-21T16:17:47.513Z,101813.48
2019-03-21T16:20:55.236Z,101808.39
2019-03-21T16:24:05.454Z,101804.95
2019-03-21T16:27:10.793Z,101811.52
2019-03-21T16:30:17.802Z,101811.52
2019-03-21T16:33:24.764Z,101818.92
2019-03-21T16:36:31.787Z,101821.73
2019-03-21T16:39:38.705Z,101839.20
2019-03-21T16:42:47.240Z,101839.39
2019-03-21T16:45:54.199Z,101843.28
2019-03-21T16:49:03.484Z,101853.16
2019-03-21T16:52:10.702Z,101871.03
2019-03-21T16:55:17.654Z,101865.92
2019-03-21T16:58:24.591Z,101881.34
2019-03-21T17:01:34.692Z,101892.84
2019-03-21T17:04:41.861Z,101896.87
2019-03-21T17:07:48.955Z,101912.26
2019-03-21T17:10:55.957Z,101915.64
2019-03-21T17:14:04.583Z,101920.11
2019-03-21T17:17:12.576Z,101919.11
2019-03-21T17:20:22.219Z,101938.13
2019-03-21T17:23:29.159Z,101928.13
2019-03-21T17:26:36.899Z,101946.73
2019-03-21T17:29:44.035Z,101943.36
2019-03-21T17:32:50.988Z,101947.20
2019-03-21T17:35:57.965Z,101960.81
2019-03-21T17:39:10.615Z,101954.32
2019-03-21T17:42:21.056Z,101964.00
2019-03-21T17:45:29.952Z,101978.78
2019-03-21T17:48:36.982Z,101973.02
2019-03-21T17:51:48.436Z,101971.31
2019-03-21T17:54:55.641Z,101975.11
2019-03-21T17:58:05.506Z,101990.16
2019-03-21T18:01:12.936Z,101918.20
2019-03-21T18:04:21.217Z,101988.75
2019-03-21T18:07:28.160Z,101983.02
2019-03-21T18:10:35.193Z,101996.56
2019-03-21T18:13:42.083Z,101990.83
2019-03-21T18:16:49.109Z,101993.52
2019-03-21T18:19:58.833Z,101986.69
2019-03-21T18:23:08.486Z,101986.05
2019-03-21T18:26:15.276Z,101991.90
2019-03-21T18:29:24.392Z,101991.02
2019-03-21T18:32:31.583Z,101988.80
2019-03-21T18:35:41.638Z,101982.48
2019-03-21T18:38:58.678Z,101983.20
2019-03-21T18:41:57.195Z,101993.89
2019-03-21T18:45:07.267Z,101996.63
2019-03-21T18:48:16.190Z,102021.09
2019-03-21T18:51:25.567Z,102034.39
2019-03-21T18:54:32.530Z,102044.73
2019-03-21T18:57:39.743Z,102044.59
2019-03-21T19:00:46.895Z,102052.23
2019-03-21T19:03:53.727Z,102059.20
2019-03-21T19:07:03.719Z,102088.29
2019-03-21T19:10:10.870Z,102087.41
2019-03-21T19:13:17.892Z,102096.60
2019-03-21T19:16:27.751Z,102104.75
2019-03-21T19:19:34.747Z,102126.52
2019-03-21T19:22:41.718Z,102157.45
2019-03-21T19:25:48.541Z,102176.48
2019-03-21T19:28:55.400Z,102205.70
2019-03-21T19:32:02.269Z,102246.16
2019-03-21T19:35:09.385Z,102239.68
2019-03-21T19:38:16.727Z,102266.47
2019-03-21T19:41:23.593Z,102265.73
2019-03-21T19:44:30.608Z,102270.63
2019-03-21T19:47:37.414Z,102284.61
2019-03-21T19:50:44.871Z,102290.46
2019-03-21T19:53:51.725Z,102292.55
2019-03-21T19:56:58.834Z,102311.20
2019-03-21T20:00:07.990Z,102057.94
2019-03-21T20:03:14.929Z,102333.56
2019-03-21T20:06:21.752Z,102339.26
2019-03-21T20:09:28.596Z,102372.10
2019-03-21T20:12:35.788Z,102390.93
2019-03-21T20:15:42.920Z,102397.03
2019-03-21T20:18:49.752Z,102422.66
2019-03-21T20:21:56.801Z,102438.68
2019-03-21T20:25:06.182Z,102460.02
2019-03-21T20:28:13.326Z,102460.29
2019-03-21T20:31:20.165Z,102453.69
2019-03-21T20:34:27.146Z,102467.52
2019-03-21T20:37:34.075Z,102465.88
2019-03-21T20:40:41.077Z,102445.94
2019-03-21T20:43:48.035Z,102423.81
2019-03-21T20:46:54.928Z,102439.80
2019-03-21T20:50:01.963Z,102440.20
2019-03-21T20:53:09.714Z,102425.66
2019-03-21T20:56:16.511Z,102418.42
2019-03-21T20:59:23.506Z,102427.34
2019-03-21T21:02:30.494Z,102428.81
2019-03-21T21:05:37.508Z,102437.66
2019-03-21T21:08:44.272Z,102441.47
2019-03-21T21:11:51.325Z,102440.91
2019-03-21T21:14:58.267Z,102469.94
2019-03-21T21:18:05.229Z,102470.23
2019-03-21T21:21:14.162Z,102486.61
2019-03-21T21:24:21.191Z,102493.20
2019-03-21T21:27:28.769Z,102486.91
2019-03-21T21:30:36.519Z,102505.11
2019-03-21T21:33:43.507Z,102509.80
2019-03-21T21:36:50.456Z,102526.69
2019-03-21T21:39:57.440Z,102522.66
2019-03-21T21:43:04.412Z,102521.06
2019-03-21T21:46:11.329Z,102532.02
2019-03-21T21:49:18.316Z,102534.17
2019-03-21T21:52:25.248Z,102536.16
2019-03-21T21:55:33.850Z,102536.05
2019-03-21T21:58:41.880Z,102552.89
2019-03-21T22:01:48.769Z,102563.62
2019-03-21T22:04:55.862Z,102559.27
2019-03-21T22:08:03.280Z,102559.27
2019-03-21T22:11:11.739Z,102587.44
2019-03-21T22:14:18.824Z,102604.19
2019-03-21T22:17:26.011Z,102620.29
2019-03-21T22:20:33.011Z,102620.01
2019-03-21T22:23:39.946Z,102622.93
2019-03-21T22:26:46.906Z,102629.39
2019-03-21T22:29:53.779Z,102638.26
2019-03-21T22:33:00.695Z,102648.16
2019-03-21T22:36:07.559Z,102666.77
2019-03-21T22:39:14.746Z,102662.52
2019-03-21T22:42:21.916Z,102649.95
2019-03-21T22:45:28.901Z,102651.03
2019-03-21T22:48:35.819Z,102662.29
2019-03-21T22:51:42.716Z,102683.04
2019-03-21T22:54:49.653Z,102690.94
2019-03-21T22:57:56.825Z,102690.17
2019-03-21T23:01:03.749Z,102703.73
2019-03-21T23:04:10.769Z,102716.94
2019-03-21T23:07:18.061Z,102722.36
2019-03-21T23:10:24.926Z,102718.58
2019-03-21T23:13:31.809Z,102722.44
2019-03-21T23:16:38.681Z,102722.79
2019-03-21T23:19:45.681Z,102730.43
2019-03-21T23:22:52.783Z,102743.12
2019-03-21T23:25:59.658Z,102780.85
2019-03-21T23:29:06.565Z,102788.34
2019-03-21T23:32:13.684Z,102797.98
2019-03-21T23:35:20.706Z,102806.88
2019-03-21T23:38:27.556Z,102812.51
2019-03-21T23:41:34.884Z,102829.34
2019-03-21T23:44:41.836Z,102829.34
2019-03-21T23:47:48.640Z,102833.31
2019-03-21T23:50:55.430Z,102836.73
2019-03-21T23:54:02.556Z,102852.20
2019-03-21T23:57:10.195Z,102863.16
